Time;durP1;ratioP1;P1;durP2;ratioP2;P2;SDS_P1;SDS_P2;PMS_P1;PMS_P2;Temp;Humidity;BMP_temperature;BMP_pressure;BME280_temperature;BME280_humidity;BME280_pressure;Samples;Min_cycle;Max_cycle;Signal;HPM_P1;HPM_P2
2023/05/04 00:01:50;;;;;;;5.20;1.83;;;6.40;99.90;;;;;;5037336;28;20114;-42
2023/05/04 00:04:16;;;;;;;5.82;1.80;;;6.40;99.90;;;;;;5054983;28;20477;-42
2023/05/04 00:06:42;;;;;;;5.05;2.38;;;6.40;99.90;;;;;;5020280;28;20071;-42
2023/05/04 00:09:10;;;;;;;4.78;2.40;;;6.40;99.90;;;;;;5038006;28;20132;-41
2023/05/04 00:11:36;;;;;;;4.78;2.10;;;6.40;99.90;;;;;;5054356;28;20476;-41
2023/05/04 00:14:02;;;;;;;7.30;2.55;;;6.40;99.90;;;;;;5021243;28;20411;-42
2023/05/04 00:16:28;;;;;;;6.33;2.70;;;6.30;99.90;;;;;;5037548;28;20041;-42
2023/05/04 00:18:53;;;;;;;9.00;3.67;;;6.30;99.90;;;;;;5037695;28;20370;-41
2023/05/04 00:21:19;;;;;;;5.87;2.27;;;6.30;99.90;;;;;;5021051;28;20052;-42
2023/05/04 00:23:45;;;;;;;6.47;2.60;;;6.30;99.90;;;;;;5021069;28;20041;-42
2023/05/04 00:26:10;;;;;;;8.17;2.33;;;6.30;99.90;;;;;;5037450;28;20138;-42
2023/05/04 00:28:36;;;;;;;6.73;3.07;;;6.30;99.90;;;;;;5037401;28;20048;-42
2023/05/04 00:31:02;;;;;;;5.53;2.30;;;6.20;99.90;;;;;;5037259;28;20473;-42
2023/05/04 00:33:28;;;;;;;6.37;2.63;;;6.20;99.90;;;;;;5037555;28;20515;-41
2023/05/04 00:35:53;;;;;;;5.53;2.43;;;6.20;99.90;;;;;;5053880;28;20331;-42
2023/05/04 00:38:19;;;;;;;6.17;2.67;;;6.20;99.90;;;;;;5037277;28;20079;-42
2023/05/04 00:40:45;;;;;;;5.73;2.23;;;6.20;99.90;;;;;;5053819;28;20480;-42
2023/05/04 00:43:10;;;;;;;6.83;2.53;;;6.20;99.90;;;;;;5020656;28;20045;-42
2023/05/04 00:45:36;;;;;;;5.30;2.17;;;6.10;99.90;;;;;;5036878;28;20098;-42
2023/05/04 00:48:03;;;;;;;5.25;2.35;;;6.10;99.90;;;;;;5037288;28;20059;-41
2023/05/04 00:50:29;;;;;;;6.97;3.05;;;6.10;99.90;;;;;;5037258;28;20391;-42
2023/05/04 00:52:58;;;;;;;7.13;2.57;;;6.10;99.90;;;;;;5020510;28;20041;-42
2023/05/04 00:55:24;;;;;;;6.45;2.53;;;6.20;99.90;;;;;;5053401;28;20041;-42
2023/05/04 00:57:51;;;;;;;7.57;2.92;;;6.20;99.90;;;;;;5053371;28;20100;-42
2023/05/04 01:00:17;;;;;;;7.80;2.83;;;6.20;99.90;;;;;;5053485;28;20511;-42
2023/05/04 01:02:43;;;;;;;5.80;2.60;;;6.20;99.90;;;;;;5020007;28;20071;-41
2023/05/04 01:05:11;;;;;;;5.77;2.23;;;6.20;99.90;;;;;;5036805;28;20476;-42
2023/05/04 01:08:02;;;;;;;6.25;2.60;;;6.20;99.90;;;;;;5036833;28;20056;-41
2023/05/04 01:10:46;;;;;;;6.95;2.53;;;6.20;99.90;;;;;;5036538;28;20076;-41
2023/05/04 01:13:15;;;;;;;6.63;2.60;;;6.20;99.90;;;;;;5053444;28;20037;-42
2023/05/04 01:15:41;;;;;;;6.78;2.80;;;6.20;99.90;;;;;;5036651;28;20044;-42
2023/05/04 01:18:07;;;;;;;5.60;2.20;;;6.20;99.90;;;;;;5053131;28;20056;-41
2023/05/04 01:20:33;;;;;;;7.00;2.35;;;6.20;99.90;;;;;;5036621;28;20049;-41
2023/05/04 01:22:59;;;;;;;6.87;1.93;;;6.20;99.90;;;;;;5053046;28;20041;-42
2023/05/04 01:25:32;;;;;;;7.80;2.67;;;6.20;99.90;;;;;;5053132;28;20040;-42
2023/05/04 01:28:08;;;;;;;7.05;2.40;;;6.20;99.90;;;;;;5052918;28;20508;-41
2023/05/04 01:30:42;;;;;;;5.00;2.17;;;6.20;99.90;;;;;;5053024;28;20373;-42
2023/05/04 01:33:09;;;;;;;8.70;2.03;;;6.10;99.90;;;;;;5036285;28;20102;-41
2023/05/04 01:35:35;;;;;;;8.52;2.97;;;6.10;99.90;;;;;;5052652;28;20051;-42
2023/05/04 01:38:01;;;;;;;4.72;1.90;;;6.10;99.90;;;;;;5036251;28;20041;-41
2023/05/04 01:40:27;;;;;;;5.68;2.10;;;6.10;99.90;;;;;;5036283;28;20534;-42
2023/05/04 01:42:53;;;;;;;7.07;2.60;;;6.10;99.90;;;;;;5036640;28;20048;-41
2023/05/04 01:45:19;;;;;;;6.40;2.30;;;6.10;99.90;;;;;;5052931;28;20057;-42
2023/05/04 01:47:44;;;;;;;5.50;2.10;;;6.10;99.90;;;;;;5035749;28;20404;-42
2023/05/04 01:50:10;;;;;;;4.80;2.10;;;6.10;99.90;;;;;;5052433;28;20087;-42
2023/05/04 01:52:36;;;;;;;6.47;2.43;;;6.10;99.90;;;;;;5019690;28;20456;-42
2023/05/04 01:55:02;;;;;;;5.70;2.33;;;6.10;99.90;;;;;;5052722;28;20106;-41
2023/05/04 01:57:27;;;;;;;4.93;2.23;;;6.00;99.90;;;;;;5052564;28;20092;-42
2023/05/04 01:59:53;;;;;;;6.23;2.47;;;6.00;99.90;;;;;;5052510;28;20051;-42
2023/05/04 02:02:19;;;;;;;6.70;2.17;;;6.00;99.90;;;;;;5052489;28;20056;-41
2023/05/04 02:04:45;;;;;;;6.33;2.60;;;6.10;99.90;;;;;;5035806;28;20508;-42
2023/05/04 02:07:11;;;;;;;5.70;2.23;;;6.00;99.90;;;;;;5052675;28;20041;-42
2023/05/04 02:09:37;;;;;;;4.68;2.15;;;6.10;99.90;;;;;;5036112;28;20057;-42
2023/05/04 02:12:03;;;;;;;6.00;2.50;;;6.00;99.90;;;;;;5052439;28;20049;-42
2023/05/04 02:14:29;;;;;;;5.93;2.50;;;6.10;99.90;;;;;;5036086;28;20049;-41
2023/05/04 02:16:55;;;;;;;8.20;2.17;;;6.10;99.90;;;;;;5052186;28;20044;-41
2023/05/04 02:19:20;;;;;;;4.37;1.73;;;6.00;99.90;;;;;;5052258;28;20045;-42
2023/05/04 02:21:46;;;;;;;6.10;3.00;;;6.10;99.90;;;;;;5052416;28;20120;-42
2023/05/04 02:24:12;;;;;;;7.25;2.40;;;6.00;99.90;;;;;;5052923;28;20080;-42
2023/05/04 02:26:38;;;;;;;6.27;2.43;;;6.00;99.90;;;;;;5035502;28;20077;-43
2023/05/04 02:29:04;;;;;;;7.03;2.90;;;6.00;99.90;;;;;;5036631;28;20115;-42
2023/05/04 02:31:31;;;;;;;5.43;2.33;;;6.10;99.90;;;;;;5039871;28;20059;-42
2023/05/04 02:33:56;;;;;;;7.85;2.47;;;6.00;99.90;;;;;;5039767;28;20131;-42
2023/05/04 02:36:22;;;;;;;6.73;2.70;;;6.10;99.90;;;;;;5039648;28;20143;-41
2023/05/04 02:38:48;;;;;;;5.93;2.47;;;6.10;99.90;;;;;;5056345;28;20586;-41
2023/05/04 02:41:14;;;;;;;6.13;2.88;;;6.00;99.90;;;;;;5056172;28;20045;-42
2023/05/04 02:43:40;;;;;;;6.30;2.17;;;6.10;99.90;;;;;;5056144;28;20056;-42
2023/05/04 02:46:06;;;;;;;7.53;2.92;;;6.00;99.90;;;;;;5039182;28;20037;-42
2023/05/04 02:48:32;;;;;;;6.97;2.50;;;6.10;99.90;;;;;;5039203;28;20373;-41
2023/05/04 02:50:58;;;;;;;6.17;2.37;;;6.10;99.90;;;;;;5039379;28;20049;-42
2023/05/04 02:53:23;;;;;;;5.90;2.50;;;6.10;99.90;;;;;;5055972;28;20044;-41
2023/05/04 02:55:49;;;;;;;7.10;2.43;;;6.00;99.90;;;;;;5039343;28;20091;-41
2023/05/04 02:58:14;;;;;;;6.47;2.67;;;6.00;99.90;;;;;;5055744;28;20392;-41
2023/05/04 03:00:41;;;;;;;6.43;2.27;;;6.00;99.90;;;;;;5039023;28;20507;-41
2023/05/04 03:03:06;;;;;;;7.05;2.95;;;6.00;99.90;;;;;;5055387;28;20057;-42
2023/05/04 03:05:32;;;;;;;6.70;2.47;;;6.00;99.90;;;;;;5055618;28;20056;-42
2023/05/04 03:07:58;;;;;;;8.03;2.50;;;6.00;99.90;;;;;;5055639;28;20059;-41
2023/05/04 03:10:23;;;;;;;6.80;2.90;;;6.00;99.90;;;;;;5038963;28;20369;-41
2023/05/04 03:12:49;;;;;;;7.17;3.20;;;6.00;99.90;;;;;;5038597;28;20045;-41
2023/05/04 03:15:15;;;;;;;8.07;2.80;;;6.00;99.90;;;;;;5055415;28;20052;-42
2023/05/04 03:17:42;;;;;;;6.73;2.63;;;6.00;99.90;;;;;;5038669;28;20053;-41
2023/05/04 03:20:08;;;;;;;8.40;3.10;;;5.90;99.90;;;;;;5038932;28;20380;-41
2023/05/04 03:22:34;;;;;;;7.15;2.60;;;5.90;99.90;;;;;;5038939;28;20115;-42
2023/05/04 03:25:00;;;;;;;8.13;2.90;;;5.90;99.90;;;;;;5055396;28;20397;-41
2023/05/04 03:27:25;;;;;;;7.20;2.77;;;5.90;99.90;;;;;;5055190;28;20045;-41
2023/05/04 03:29:51;;;;;;;5.70;2.43;;;6.00;99.90;;;;;;5055237;28;20053;-41
2023/05/04 03:32:17;;;;;;;5.50;2.47;;;6.00;99.90;;;;;;5055158;28;20053;-42
2023/05/04 03:34:44;;;;;;;6.30;2.57;;;6.00;99.90;;;;;;5038677;28;20053;-42
2023/05/04 03:37:10;;;;;;;6.13;2.60;;;6.00;99.90;;;;;;5038814;28;20110;-42
2023/05/04 03:39:36;;;;;;;7.10;2.75;;;6.00;99.90;;;;;;5054927;28;20077;-42
2023/05/04 03:42:03;;;;;;;5.20;2.33;;;6.00;99.90;;;;;;5053829;28;20053;-42
2023/05/04 03:44:29;;;;;;;7.32;2.90;;;6.10;99.90;;;;;;5055031;28;20124;-42
2023/05/04 03:46:54;;;;;;;9.43;2.90;;;6.10;99.90;;;;;;5054358;28;20052;-42
2023/05/04 03:49:20;;;;;;;7.23;2.70;;;6.10;99.90;;;;;;5054903;28;20049;-41
2023/05/04 03:51:46;;;;;;;8.50;3.17;;;6.10;99.90;;;;;;5054980;28;20063;-41
2023/05/04 03:54:11;;;;;;;6.27;2.40;;;6.10;99.90;;;;;;5055231;28;20044;-41
2023/05/04 03:56:37;;;;;;;7.53;3.07;;;6.10;99.90;;;;;;5038318;28;20396;-43
2023/05/04 03:59:03;;;;;;;6.13;2.87;;;6.20;99.90;;;;;;5054724;28;20041;-41
2023/05/04 04:01:29;;;;;;;5.23;2.50;;;6.20;99.90;;;;;;5021247;28;20488;-42
2023/05/04 04:03:54;;;;;;;5.63;2.43;;;6.20;99.90;;;;;;5021053;28;20060;-42
2023/05/04 04:06:21;;;;;;;6.47;2.67;;;6.20;99.90;;;;;;5054451;28;20103;-42
2023/05/04 04:08:47;;;;;;;5.25;2.42;;;6.20;99.90;;;;;;5037893;28;20059;-41
2023/05/04 04:11:13;;;;;;;6.43;2.50;;;6.30;99.90;;;;;;5037782;28;20044;-42
2023/05/04 04:13:38;;;;;;;6.43;2.03;;;6.30;99.90;;;;;;5054198;28;20053;-42
2023/05/04 04:16:05;;;;;;;7.73;2.87;;;6.30;99.90;;;;;;5054271;28;20060;-42
2023/05/04 04:18:31;;;;;;;7.00;3.22;;;6.30;99.90;;;;;;5037799;28;20052;-42
2023/05/04 04:20:57;;;;;;;6.60;2.78;;;6.30;99.90;;;;;;5054305;28;20064;-42
2023/05/04 04:23:23;;;;;;;8.03;3.27;;;6.30;99.90;;;;;;5054321;28;20064;-41
2023/05/04 04:25:50;;;;;;;7.45;2.78;;;6.30;99.90;;;;;;5054180;28;20049;-42
2023/05/04 04:28:15;;;;;;;7.18;2.95;;;6.20;99.90;;;;;;5037823;28;20395;-41
2023/05/04 04:30:41;;;;;;;9.00;3.67;;;6.30;99.90;;;;;;5053871;28;20052;-42
2023/05/04 04:33:08;;;;;;;7.43;2.80;;;6.30;99.90;;;;;;5054083;28;20072;-42
2023/05/04 04:35:33;;;;;;;6.90;3.00;;;6.20;99.90;;;;;;5037393;28;20496;-42
2023/05/04 04:38:00;;;;;;;6.47;3.00;;;6.30;99.90;;;;;;5053952;28;20055;-42
2023/05/04 04:40:25;;;;;;;9.52;3.25;;;6.30;99.90;;;;;;5037326;28;20135;-41
2023/05/04 04:42:51;;;;;;;5.80;2.80;;;6.30;99.90;;;;;;5037241;28;20136;-42
2023/05/04 04:45:17;;;;;;;7.63;3.23;;;6.30;99.90;;;;;;5036937;28;20114;-42
2023/05/04 04:47:44;;;;;;;6.45;2.90;;;6.30;99.90;;;;;;5037596;28;20568;-42
2023/05/04 04:50:10;;;;;;;8.63;3.72;;;6.30;99.90;;;;;;5037141;28;20084;-41
2023/05/04 04:52:36;;;;;;;7.22;2.80;;;6.30;99.90;;;;;;5036891;28;20067;-41
2023/05/04 04:55:03;;;;;;;6.88;3.00;;;6.30;99.90;;;;;;5053752;28;20457;-42
2023/05/04 04:57:29;;;;;;;8.18;3.30;;;6.30;99.90;;;;;;5053345;28;20454;-42
2023/05/04 04:59:55;;;;;;;8.83;3.23;;;6.40;99.90;;;;;;5053344;28;20049;-42
2023/05/04 05:02:21;;;;;;;8.97;3.60;;;6.40;99.90;;;;;;5053192;28;20495;-41
2023/05/04 05:04:47;;;;;;;;;;;6.40;99.90;;;;;;5054670;28;20139;-42
2023/05/04 05:07:13;;;;;;;8.90;3.30;;;6.50;99.90;;;;;;5069715;28;20027;-42
2023/05/04 05:09:38;;;;;;;8.67;3.00;;;6.50;99.90;;;;;;5037045;28;20067;-41
2023/05/04 05:12:04;;;;;;;9.37;3.47;;;6.50;99.90;;;;;;5020217;28;20127;-42
2023/05/04 05:14:30;;;;;;;9.90;3.35;;;6.50;99.90;;;;;;5052882;28;20045;-42
2023/05/04 05:16:57;;;;;;;9.00;3.33;;;6.60;99.90;;;;;;5053461;28;20052;-41
2023/05/04 05:19:23;;;;;;;7.65;2.97;;;6.60;99.90;;;;;;5037052;28;20447;-42
2023/05/04 05:21:48;;;;;;;6.97;2.70;;;6.70;99.90;;;;;;5036626;28;20058;-41
2023/05/04 05:24:15;;;;;;;6.67;2.80;;;6.70;99.90;;;;;;5053134;28;20480;-42
2023/05/04 05:26:41;;;;;;;7.13;2.95;;;6.70;99.90;;;;;;5036507;28;20116;-42
2023/05/04 05:29:07;;;;;;;6.93;2.53;;;6.70;99.90;;;;;;5053036;28;20049;-42
2023/05/04 05:31:33;;;;;;;9.33;3.00;;;6.80;99.90;;;;;;5019959;28;20499;-41
2023/05/04 05:33:58;;;;;;;6.13;2.73;;;6.80;99.90;;;;;;5036357;28;20041;-42
2023/05/04 05:36:24;;;;;;;7.33;2.93;;;6.80;99.90;;;;;;5036272;28;20049;-42
2023/05/04 05:38:51;;;;;;;7.30;3.03;;;6.80;99.90;;;;;;5052652;28;20049;-42
2023/05/04 05:41:16;;;;;;;;;;;6.80;99.90;;;;;;5036707;28;20056;-42
2023/05/04 05:43:42;;;;;;;6.80;2.78;;;6.90;99.90;;;;;;5035582;28;19971;-42
2023/05/04 05:46:08;;;;;;;8.00;3.27;;;6.90;99.90;;;;;;5052617;28;20052;-42
2023/05/04 05:48:33;;;;;;;8.57;2.80;;;6.90;99.90;;;;;;5036313;28;20515;-42
2023/05/04 05:50:59;;;;;;;6.80;3.23;;;6.90;99.90;;;;;;5052750;28;20436;-42
2023/05/04 05:53:25;;;;;;;6.40;2.53;;;7.00;99.90;;;;;;5052309;28;20045;-42
2023/05/04 05:55:51;;;;;;;5.33;2.43;;;7.10;99.90;;;;;;5036040;28;20499;-42
2023/05/04 05:58:17;;;;;;;8.10;2.03;;;7.20;99.90;;;;;;5035855;28;20287;-41
2023/05/04 06:00:42;;;;;;;5.63;2.53;;;7.30;99.90;;;;;;5035937;28;20130;-42
2023/05/04 06:03:08;;;;;;;8.33;2.80;;;7.40;99.90;;;;;;5019244;28;20053;-44
2023/05/04 06:05:34;;;;;;;6.83;2.63;;;7.60;99.90;;;;;;5035644;28;20099;-43
2023/05/04 06:07:59;;;;;;;10.03;3.13;;;7.80;99.90;;;;;;5018824;28;20045;-42
2023/05/04 06:10:25;;;;;;;9.47;2.53;;;8.20;99.90;;;;;;5035802;28;20094;-44
2023/05/04 06:12:51;;;;;;;7.23;2.63;;;8.50;99.90;;;;;;5052435;28;20480;-42
2023/05/04 06:15:17;;;;;;;8.37;2.93;;;8.90;99.90;;;;;;5052249;28;20048;-42
2023/05/04 06:17:43;;;;;;;9.60;2.85;;;9.10;99.90;;;;;;5053723;28;20045;-42
2023/05/04 06:20:09;;;;;;;7.20;2.73;;;9.30;99.90;;;;;;5035725;28;20065;-42
2023/05/04 06:22:34;;;;;;;6.97;3.10;;;9.40;99.90;;;;;;5035908;28;20098;-42
2023/05/04 06:25:00;;;;;;;5.57;2.53;;;9.40;99.90;;;;;;5035787;28;20081;-42
2023/05/04 06:27:27;;;;;;;6.70;2.40;;;9.30;99.90;;;;;;5035352;28;20048;-42
2023/05/04 06:29:53;;;;;;;6.65;2.78;;;9.30;99.90;;;;;;5035947;28;20049;-42
2023/05/04 06:32:19;;;;;;;6.37;2.50;;;9.50;99.90;;;;;;5052349;28;20052;-42
2023/05/04 06:34:44;;;;;;;7.67;3.10;;;9.70;99.90;;;;;;5052109;28;20166;-42
2023/05/04 06:37:10;;;;;;;10.87;3.30;;;10.00;99.90;;;;;;5051898;28;20056;-42
2023/05/04 06:39:36;;;;;;;7.43;2.80;;;10.00;99.90;;;;;;5035702;28;20055;-43
2023/05/04 06:42:02;;;;;;;6.13;2.20;;;10.00;99.90;;;;;;5035497;28;20045;-42
2023/05/04 06:44:28;;;;;;;6.67;2.53;;;10.10;99.90;;;;;;5052112;28;20094;-42
2023/05/04 06:46:53;;;;;;;6.20;2.73;;;10.10;99.90;;;;;;5035277;28;20445;-43
2023/05/04 06:49:19;;;;;;;6.90;2.70;;;10.00;99.90;;;;;;5053131;28;20056;-43
2023/05/04 06:51:45;;;;;;;6.60;3.50;;;9.90;99.90;;;;;;5035600;28;20045;-44
2023/05/04 06:54:11;;;;;;;7.37;2.80;;;9.70;99.90;;;;;;5035600;28;20048;-43
2023/05/04 06:56:38;;;;;;;5.85;2.88;;;9.70;99.90;;;;;;5051958;28;20087;-43
2023/05/04 06:59:04;;;;;;;7.68;2.40;;;9.70;99.90;;;;;;5052091;28;20037;-43
2023/05/04 07:01:30;;;;;;;10.32;3.05;;;9.70;99.90;;;;;;5052001;28;20056;-43
2023/05/04 07:03:57;;;;;;;8.67;2.90;;;9.90;99.90;;;;;;5053037;28;20063;-43
2023/05/04 07:06:25;;;;;;;;;;;9.90;99.90;;;;;;5052339;28;20307;-43
2023/05/04 07:08:51;;;;;;;6.57;2.65;;;10.00;99.90;;;;;;5068626;28;19925;-42
2023/05/04 07:11:17;;;;;;;6.60;2.57;;;10.00;99.90;;;;;;5035118;28;20109;-42
2023/05/04 07:13:43;;;;;;;8.20;3.43;;;9.90;99.90;;;;;;5018962;28;20059;-42
2023/05/04 07:16:09;;;;;;;7.40;2.88;;;10.00;99.90;;;;;;5037418;28;20812;-42
2023/05/04 07:18:35;;;;;;;7.03;2.70;;;10.20;99.90;;;;;;5055503;28;20041;-42
2023/05/04 07:21:01;;;;;;;7.90;2.93;;;10.40;99.90;;;;;;5055234;28;20504;-42
2023/05/04 07:23:26;;;;;;;6.45;2.78;;;10.60;99.90;;;;;;5038958;28;20098;-43
2023/05/04 07:25:52;;;;;;;5.93;2.00;;;10.80;99.90;;;;;;5055244;28;20498;-42
2023/05/04 07:28:18;;;;;;;12.20;2.63;;;10.90;99.90;;;;;;5038654;28;20090;-42
2023/05/04 07:30:43;;;;;;;5.23;2.63;;;10.80;99.90;;;;;;5038668;28;20045;-42
2023/05/04 07:33:09;;;;;;;6.70;2.60;;;10.80;99.90;;;;;;5038632;28;20041;-42
2023/05/04 07:35:35;;;;;;;5.63;2.45;;;10.90;99.90;;;;;;5055022;28;20045;-43
2023/05/04 07:38:02;;;;;;;7.30;1.87;;;10.80;99.90;;;;;;5056110;28;20040;-43
2023/05/04 07:40:27;;;;;;;8.30;2.20;;;10.80;99.90;;;;;;5038383;28;20132;-43
2023/05/04 07:42:53;;;;;;;7.03;2.60;;;10.70;99.90;;;;;;5055674;28;20183;-43
2023/05/04 07:45:19;;;;;;;5.70;2.53;;;10.70;99.90;;;;;;5022526;28;20056;-43
2023/05/04 07:47:44;;;;;;;6.30;2.40;;;10.60;99.90;;;;;;5038543;28;20444;-41
2023/05/04 07:50:11;;;;;;;7.13;2.30;;;10.60;99.90;;;;;;5038203;28;20446;-41
2023/05/04 07:52:37;;;;;;;5.85;2.05;;;10.60;99.90;;;;;;5054787;28;20037;-41
2023/05/04 07:55:02;;;;;;;6.33;2.30;;;10.60;99.90;;;;;;5037971;28;20507;-41
2023/05/04 07:57:28;;;;;;;6.18;2.80;;;10.60;99.90;;;;;;5037859;28;20043;-42
2023/05/04 07:59:55;;;;;;;5.43;2.13;;;10.60;99.90;;;;;;5054586;28;20085;-42
2023/05/04 08:02:20;;;;;;;5.82;2.75;;;10.60;99.90;;;;;;5054348;28;20060;-41
2023/05/04 08:04:46;;;;;;;5.67;2.53;;;10.60;99.90;;;;;;5054642;28;20060;-46
2023/05/04 08:07:14;;;;;;;7.70;3.47;;;10.50;99.90;;;;;;5054129;28;20063;-42
2023/05/04 08:09:40;;;;;;;7.20;2.58;;;10.60;99.90;;;;;;5054302;28;20068;-41
2023/05/04 08:12:06;;;;;;;8.90;2.80;;;10.60;99.90;;;;;;5037662;28;20045;-42
2023/05/04 08:14:32;;;;;;;6.88;3.10;;;10.60;99.90;;;;;;5055848;28;20049;-41
2023/05/04 08:16:58;;;;;;;5.53;2.78;;;10.70;99.90;;;;;;5054459;28;20080;-41
2023/05/04 08:19:24;;;;;;;8.40;3.30;;;10.80;99.90;;;;;;5037825;28;20475;-41
2023/05/04 08:21:49;;;;;;;6.60;2.43;;;10.80;99.90;;;;;;5037605;28;20123;-42
2023/05/04 08:24:17;;;;;;;6.30;2.67;;;11.00;99.90;;;;;;5037378;28;20052;-41
2023/05/04 08:26:43;;;;;;;6.10;2.72;;;11.00;99.90;;;;;;5020293;28;20041;-42
2023/05/04 08:29:09;;;;;;;7.00;2.97;;;11.10;99.90;;;;;;5037906;28;20055;-42
2023/05/04 08:31:35;;;;;;;7.13;2.65;;;11.10;99.90;;;;;;5037380;28;20136;-42
2023/05/04 08:34:02;;;;;;;8.27;2.88;;;11.10;99.90;;;;;;5053979;28;20041;-41
2023/05/04 08:36:28;;;;;;;;;;;11.10;99.90;;;;;;5054496;28;20052;-41
2023/05/04 08:38:54;;;;;;;7.82;3.00;;;11.20;99.90;;;;;;5070475;28;20378;-41
2023/05/04 08:41:22;;;;;;;6.57;2.72;;;11.20;99.90;;;;;;5037388;28;20045;-41
2023/05/04 08:43:48;;;;;;;6.85;2.88;;;11.30;99.90;;;;;;5037195;28;20103;-42
2023/05/04 08:46:17;;;;;;;8.00;3.22;;;11.30;99.90;;;;;;5053708;28;20552;-41
2023/05/04 08:48:43;;;;;;;8.95;2.70;;;11.30;99.90;;;;;;5037155;28;20122;-41
2023/05/04 08:51:10;;;;;;;9.32;2.40;;;11.40;99.90;;;;;;5037109;28;20483;-42
2023/05/04 08:53:38;;;;;;;;;;;11.50;99.90;;;;;;5020981;28;20045;-41
2023/05/04 08:56:08;;;;;;;7.18;2.80;;;11.60;99.90;;;;;;5070684;28;19925;-41
2023/05/04 08:58:36;;;;;;;6.20;2.83;;;11.60;99.90;;;;;;5053467;28;20041;-41
2023/05/04 09:01:05;;;;;;;7.38;2.67;;;11.70;99.90;;;;;;5020439;28;20136;-41
2023/05/04 09:03:32;;;;;;;6.13;2.72;;;11.70;99.90;;;;;;5036265;28;20067;-41
2023/05/04 09:05:59;;;;;;;7.13;3.05;;;11.80;99.90;;;;;;5053056;28;20055;-41
2023/05/04 09:08:26;;;;;;;6.18;2.33;;;11.80;99.90;;;;;;5036800;28;20132;-41
2023/05/04 09:10:51;;;;;;;;;;;11.80;99.90;;;;;;5037073;28;20110;-41
2023/05/04 09:13:17;;;;;;;6.57;2.58;;;11.90;99.90;;;;;;5069883;28;19924;-43
2023/05/04 09:15:56;;;;;;;5.87;2.60;;;12.00;99.90;;;;;;5053239;28;20049;-41
2023/05/04 09:18:22;;;;;;;7.57;2.83;;;12.10;99.90;;;;;;5036583;28;20102;-41
2023/05/04 09:20:48;;;;;;;5.65;2.83;;;12.20;99.90;;;;;;5036212;28;20139;-41
2023/05/04 09:23:16;;;;;;;6.15;2.35;;;12.30;99.90;;;;;;5052673;28;20404;-41
2023/05/04 09:25:49;;;;;;;6.10;2.20;;;12.40;99.90;;;;;;5052871;28;20048;-41
2023/05/04 09:28:16;;;;;;;6.97;2.83;;;12.50;99.90;;;;;;5053596;28;20048;-41
2023/05/04 09:30:41;;;;;;;;;;;12.60;99.90;;;;;;5036835;28;20405;-43
2023/05/04 09:33:08;;;;;;;6.10;2.78;;;12.70;99.90;;;;;;5053748;28;19931;-43
2023/05/04 09:35:34;;;;;;;5.72;2.55;;;12.70;99.90;;;;;;5053725;28;20138;-42
2023/05/04 09:37:59;;;;;;;5.97;2.63;;;12.80;99.90;;;;;;5036139;28;20516;-42
2023/05/04 09:40:40;;;;;;;8.57;3.25;;;12.80;99.90;;;;;;5035625;28;20041;-42
2023/05/04 09:43:09;;;;;;;7.05;2.83;;;12.80;99.90;;;;;;5053869;28;20126;-42
2023/05/04 09:45:46;;;;;;;9.35;3.20;;;12.90;99.90;;;;;;5052554;28;20511;-43
2023/05/04 09:48:27;;;;;;;6.28;3.10;;;12.90;99.90;;;;;;5036283;28;20480;-42
2023/05/04 09:50:58;;;;;;;6.80;2.65;;;13.00;99.90;;;;;;5053997;28;20439;-43
2023/05/04 09:53:30;;;;;;;5.20;2.60;;;13.10;99.90;;;;;;5052499;28;20049;-42
2023/05/04 09:56:13;;;;;;;6.13;2.80;;;13.20;99.90;;;;;;5053520;28;20127;-42
2023/05/04 09:58:39;;;;;;;5.90;2.42;;;13.30;99.90;;;;;;5053670;28;20085;-46
2023/05/04 10:01:05;;;;;;;5.45;3.03;;;13.40;99.90;;;;;;5035847;28;20056;-42
2023/05/04 10:03:31;;;;;;;6.70;2.53;;;13.50;99.90;;;;;;5052301;28;20057;-42
2023/05/04 10:06:01;;;;;;;6.38;2.78;;;13.50;99.90;;;;;;5053271;28;20199;-42
2023/05/04 10:08:27;;;;;;;5.65;2.53;;;13.60;99.90;;;;;;5052412;28;20084;-42
2023/05/04 10:10:53;;;;;;;5.88;2.80;;;13.70;99.90;;;;;;5052246;28;20053;-42
2023/05/04 10:13:19;;;;;;;5.47;2.50;;;13.90;99.90;;;;;;5052512;28;20059;-42
2023/05/04 10:16:00;;;;;;;5.17;2.17;;;14.00;99.90;;;;;;5035905;28;20131;-42
2023/05/04 10:19:13;;;;;;;6.22;2.47;;;14.10;99.90;;;;;;5036071;28;20291;-43
2023/05/04 10:21:46;;;;;;;4.88;2.42;;;14.30;99.90;;;;;;5017620;28;20057;-42
2023/05/04 10:24:30;;;;;;;4.60;2.47;;;14.40;99.90;;;;;;5052305;28;20049;-44
2023/05/04 10:27:12;;;;;;;6.90;2.10;;;14.60;99.90;;;;;;5053206;28;20045;-43
2023/05/04 10:29:38;;;;;;;7.68;2.47;;;14.80;99.90;;;;;;5052164;28;20102;-44
2023/05/04 10:32:06;;;;;;;6.32;2.40;;;15.00;99.90;;;;;;5053311;28;20045;-44
2023/05/04 10:34:33;;;;;;;4.60;2.40;;;15.10;99.90;;;;;;5053230;28;20060;-43
2023/05/04 10:37:01;;;;;;;7.50;2.25;;;15.20;99.90;;;;;;5035709;28;20143;-44
2023/05/04 10:39:29;;;;;;;5.75;2.60;;;15.20;99.90;;;;;;5053084;28;20049;-44
2023/05/04 10:42:05;;;;;;;5.47;2.33;;;15.20;99.90;;;;;;5052111;28;20047;-44
2023/05/04 10:44:52;;;;;;;5.25;2.45;;;15.20;99.90;;;;;;5052266;28;20041;-44
2023/05/04 10:47:33;;;;;;;6.07;2.28;;;15.20;99.90;;;;;;5053102;28;20127;-44
2023/05/04 10:50:06;;;;;;;4.88;2.50;;;15.30;99.90;;;;;;5053498;28;20515;-44
2023/05/04 10:52:44;;;;;;;6.75;2.55;;;15.30;99.90;;;;;;5055732;28;20041;-46
2023/05/04 10:55:10;;;;;;;5.72;2.40;;;15.40;99.90;;;;;;5057101;28;20045;-46
2023/05/04 10:57:49;;;;;;;5.72;2.65;;;15.40;99.90;;;;;;5056909;28;20480;-45
2023/05/04 11:00:15;;;;;;;4.25;2.20;;;15.50;99.90;;;;;;5057061;28;20093;-44
2023/05/04 11:02:41;;;;;;;4.50;1.92;;;15.60;99.90;;;;;;5055465;28;20057;-44
2023/05/04 11:05:08;;;;;;;4.15;2.08;;;15.80;99.90;;;;;;5056412;28;20048;-45
2023/05/04 11:07:36;;;;;;;;;;;15.90;99.90;;;;;;5057050;28;20045;-45
2023/05/04 11:10:03;;;;;;;5.60;2.72;;;16.10;99.90;;;;;;5056708;28;20023;-45
2023/05/04 11:12:30;;;;;;;6.45;2.50;;;16.10;99.90;;;;;;5056460;28;20553;-46
2023/05/04 11:15:09;;;;;;;6.13;2.70;;;16.10;99.90;;;;;;5055487;28;20480;-45
2023/05/04 11:17:45;;;;;;;6.53;2.17;;;16.20;99.90;;;;;;5056396;28;20045;-45
2023/05/04 11:20:18;;;;;;;5.80;2.93;;;16.30;99.90;;;;;;5055443;28;20045;-45
2023/05/04 11:22:43;;;;;;;5.15;2.10;;;16.40;99.90;;;;;;5055488;28;20292;-45
2023/05/04 11:25:09;;;;;;;4.45;2.15;;;16.50;99.90;;;;;;5056463;28;20392;-44
2023/05/04 11:27:35;;;;;;;4.43;2.28;;;16.70;99.90;;;;;;5054940;28;20049;-45
2023/05/04 11:30:03;;;;;;;5.57;2.30;;;16.90;99.90;;;;;;5055272;28;20098;-47
2023/05/04 11:32:41;;;;;;;5.03;2.35;;;17.00;99.90;;;;;;5055248;28;20327;-45
2023/05/04 11:35:13;;;;;;;5.07;1.80;;;17.20;99.90;;;;;;5056090;28;20059;-45
2023/05/04 11:37:43;;;;;;;4.18;2.22;;;17.10;99.90;;;;;;5056342;28;20495;-45
2023/05/04 11:40:18;;;;;;;4.80;2.03;;;17.20;99.90;;;;;;5055002;28;20484;-44
2023/05/04 11:42:44;;;;;;;5.07;2.13;;;17.20;99.90;;;;;;5055806;28;20056;-44
2023/05/04 11:45:22;;;;;;;5.20;2.17;;;17.30;99.90;;;;;;5038374;28;20052;-44
2023/05/04 11:47:48;;;;;;;3.75;1.88;;;17.40;99.90;;;;;;5055774;28;20558;-49
2023/05/04 11:50:16;;;;;;;5.45;2.83;;;17.50;99.90;;;;;;5055814;28;20095;-46
2023/05/04 11:52:43;;;;;;;5.60;2.33;;;17.60;99.90;;;;;;5055614;28;20083;-45
2023/05/04 11:55:24;;;;;;;;;;;17.70;99.90;;;;;;5054795;28;20519;-45
2023/05/04 11:58:05;;;;;;;5.35;2.45;;;17.70;99.90;;;;;;5054813;28;19920;-45
2023/05/04 12:00:40;;;;;;;5.05;2.50;;;17.70;99.90;;;;;;5038012;28;20049;-45
2023/05/04 12:03:22;;;;;;;3.95;2.30;;;17.70;99.90;;;;;;5054634;28;20144;-45
2023/05/04 12:05:50;;;;;;;5.15;2.15;;;17.90;99.90;;;;;;5055715;28;20056;-45
2023/05/04 12:08:40;;;;;;;6.97;2.55;;;17.90;99.90;;;;;;5054007;28;20098;-45
2023/05/04 12:11:09;;;;;;;5.40;2.55;;;17.80;99.60;;;;;;5054448;28;20045;-46
2023/05/04 12:13:36;;;;;;;8.50;2.53;;;17.80;99.90;;;;;;5055312;28;20055;-44
2023/05/04 12:16:11;;;;;;;;;;;17.90;99.90;;;;;;5054695;28;20049;-45
2023/05/04 12:18:37;;;;;;;5.07;2.42;;;17.90;99.90;;;;;;5037794;28;19925;-45
2023/05/04 12:21:11;;;;;;;5.90;2.60;;;18.00;99.90;;;;;;5037754;28;20514;-44
2023/05/04 12:23:37;;;;;;;6.60;2.80;;;18.00;99.90;;;;;;5054596;28;20053;-46
2023/05/04 12:26:03;;;;;;;4.85;2.70;;;18.00;99.90;;;;;;5054965;28;20079;-45
2023/05/04 12:28:29;;;;;;;5.72;2.63;;;18.10;99.60;;;;;;5053978;28;20052;-46
2023/05/04 12:30:55;;;;;;;4.93;2.78;;;18.20;99.80;;;;;;5055095;28;20052;-45
2023/05/04 12:33:22;;;;;;;;;;;18.20;99.30;;;;;;5055304;28;20041;-45
2023/05/04 12:35:47;;;;;;;5.47;2.25;;;18.30;99.80;;;;;;5037434;28;19931;-45
2023/05/04 12:38:13;;;;;;;5.10;2.22;;;18.40;99.50;;;;;;5037359;28;20048;-44
2023/05/04 12:40:39;;;;;;;4.72;1.98;;;18.50;99.40;;;;;;5053853;28;20051;-44
2023/05/04 12:43:05;;;;;;;5.15;2.33;;;18.50;99.00;;;;;;5037004;28;20051;-46
2023/05/04 12:45:30;;;;;;;5.93;2.25;;;18.50;97.80;;;;;;5054851;28;20056;-45
2023/05/04 12:47:56;;;;;;;5.97;2.40;;;18.40;95.80;;;;;;5055002;28;20048;-44
2023/05/04 12:50:22;;;;;;;5.82;2.33;;;18.30;96.10;;;;;;5037252;28;20063;-45
2023/05/04 12:52:47;;;;;;;4.93;2.35;;;18.30;96.00;;;;;;5037363;28;20484;-45
2023/05/04 12:55:13;;;;;;;5.97;2.50;;;18.30;95.90;;;;;;5053460;28;20080;-45
2023/05/04 12:57:42;;;;;;;5.03;2.10;;;18.40;95.60;;;;;;5054499;28;20485;-45